Gandy Spur, Louisiana
Current Conditions -  °F | °C
As of 10:56 AM on Friday 19 Dec 2014 (Local Time) from KAQV Reporting Station
Light Rain Light Rain  
Wind Chill: 53°   Ceiling: 300
Heat Index: 53°   Visibility: 4mi
Dew Point: 51°   Wind: 6mph
Humidity: 93%   Direction: 350°N
Pressure: 30.13"   Gusts: NA
Location:  31.4159°N, 93.4621°W
Report Text: KAQV 191656Z AUTO 35005KT 4SM -RA BR OVC003 12/11 A3013 RMK AO2 SLP203 T01170106 PNO $
Loading
Personal Weather Stations






























Interactive Weather Map New forecast layout! Learn more

10-Day Weather Forecast

Advertisements
Track Severe Weather on mobile